createdAt,value
2023-05-03T00:00:47.583Z,99562.59
2023-05-03T00:03:14.298Z,99559.13
2023-05-03T00:05:41.153Z,99562.84
2023-05-03T00:08:07.647Z,99556.13
2023-05-03T00:10:34.004Z,99562.97
2023-05-03T00:13:00.392Z,99557.84
2023-05-03T00:15:26.834Z,99561.78
2023-05-03T00:17:53.148Z,99553.19
2023-05-03T00:20:20.680Z,99555.88
2023-05-03T00:22:47.262Z,99558.19
2023-05-03T00:25:13.607Z,99560.63
2023-05-03T00:27:39.944Z,99563.28
2023-05-03T00:30:06.547Z,99559.00
2023-05-03T00:32:32.990Z,99556.56
2023-05-03T00:34:59.401Z,99554.94
2023-05-03T00:37:25.916Z,99548.00
2023-05-03T00:39:52.434Z,99541.06
2023-05-03T00:42:18.749Z,99546.94
2023-05-03T00:44:45.070Z,99551.81
2023-05-03T00:47:11.522Z,99542.78
2023-05-03T00:49:38.122Z,99546.25
2023-05-03T00:52:04.456Z,99548.22
2023-05-03T00:54:32.979Z,99543.25
2023-05-03T00:56:59.283Z,99548.94
2023-05-03T00:59:25.924Z,99554.03
2023-05-03T01:01:52.486Z,99545.00
2023-05-03T01:04:22.099Z,99546.59
2023-05-03T01:06:52.112Z,99543.72
2023-05-03T01:09:32.496Z,99549.88
2023-05-03T01:12:04.936Z,99547.78
2023-05-03T01:14:49.569Z,99544.91
2023-05-03T01:17:15.959Z,99548.13
2023-05-03T01:19:51.957Z,99546.28
2023-05-03T01:22:38.257Z,99550.56
2023-05-03T01:25:07.624Z,99557.31
2023-05-03T01:27:33.924Z,99549.06
2023-05-03T01:30:00.623Z,99554.19
2023-05-03T01:32:30.935Z,99557.66
2023-05-03T01:35:17.464Z,99560.09
2023-05-03T01:37:43.767Z,99555.81
2023-05-03T01:40:10.200Z,99551.75
2023-05-03T01:42:36.745Z,99549.69
2023-05-03T01:45:05.970Z,99556.03
2023-05-03T01:47:32.307Z,99558.69
2023-05-03T01:49:58.670Z,99565.88
2023-05-03T01:52:25.001Z,99553.59
2023-05-03T01:54:51.348Z,99555.69
2023-05-03T01:57:17.662Z,99554.66
2023-05-03T01:59:43.984Z,99554.09
2023-05-03T02:02:10.307Z,99555.47
2023-05-03T02:04:36.766Z,99547.47
2023-05-03T02:07:03.108Z,99557.19
2023-05-03T02:09:29.678Z,99561.03
2023-05-03T02:11:55.988Z,99561.59
2023-05-03T02:14:22.585Z,99565.88
2023-05-03T02:16:48.982Z,99564.16
2023-05-03T02:19:15.924Z,99563.44
2023-05-03T02:21:42.274Z,99567.13
2023-05-03T02:24:08.845Z,99569.00
2023-05-03T02:26:35.157Z,99582.56
2023-05-03T02:29:01.504Z,99579.56
2023-05-03T02:31:27.994Z,99585.69
2023-05-03T02:33:55.161Z,99583.38
2023-05-03T02:36:21.483Z,99580.56
2023-05-03T02:38:47.803Z,99589.53
2023-05-03T02:41:14.289Z,99583.94
2023-05-03T02:43:40.646Z,99586.38
2023-05-03T02:46:06.994Z,99591.94
2023-05-03T02:48:33.371Z,99586.84
2023-05-03T02:50:59.864Z,99584.66
2023-05-03T02:53:26.286Z,99587.66
2023-05-03T02:55:52.614Z,99586.72
2023-05-03T02:58:19.044Z,99588.94
2023-05-03T03:00:45.391Z,99589.72
2023-05-03T03:03:11.842Z,99589.72
2023-05-03T03:05:38.234Z,99590.78
2023-05-03T03:08:04.635Z,99590.78
2023-05-03T03:10:31.100Z,99583.25
2023-05-03T03:12:57.442Z,99581.63
2023-05-03T03:15:23.780Z,99596.94
2023-05-03T03:17:50.157Z,99592.16
2023-05-03T03:20:16.565Z,99597.25
2023-05-03T03:22:43.839Z,99590.09
2023-05-03T03:25:10.212Z,99583.34
2023-05-03T03:27:37.578Z,99591.59
2023-05-03T03:30:08.313Z,99598.78
2023-05-03T03:32:34.764Z,99593.56
2023-05-03T03:35:01.394Z,99595.41
2023-05-03T03:37:27.802Z,99592.41
2023-05-03T03:39:54.120Z,99590.66
2023-05-03T03:42:22.066Z,99586.47
2023-05-03T03:44:48.651Z,99590.75
2023-05-03T03:47:15.018Z,99581.03
2023-05-03T03:49:41.504Z,99580.53
2023-05-03T03:52:07.820Z,99575.09
2023-05-03T03:54:37.153Z,99580.69
2023-05-03T03:57:03.917Z,99579.28
2023-05-03T03:59:30.342Z,99581.03
2023-05-03T04:01:56.689Z,99577.81
2023-05-03T04:04:23.121Z,99574.78
2023-05-03T04:06:49.513Z,99582.22
2023-05-03T04:09:17.685Z,99574.22
2023-05-03T04:11:44.483Z,99581.28
2023-05-03T04:14:10.832Z,99576.75
2023-05-03T04:16:37.190Z,99582.28
2023-05-03T04:19:03.631Z,99572.53
2023-05-03T04:21:29.979Z,99578.00
2023-05-03T04:23:56.507Z,99580.09
2023-05-03T04:26:31.370Z,99570.44
2023-05-03T04:28:59.114Z,99578.53
2023-05-03T04:31:25.520Z,99587.84
2023-05-03T04:33:51.980Z,99585.19
2023-05-03T04:36:18.803Z,99590.53
2023-05-03T04:38:45.129Z,99588.06
2023-05-03T04:41:12.179Z,99594.78
2023-05-03T04:43:39.484Z,99580.94
2023-05-03T04:46:05.830Z,99586.38
2023-05-03T04:48:32.238Z,99591.25
2023-05-03T04:50:58.537Z,99589.50
2023-05-03T04:53:24.931Z,99588.53
2023-05-03T04:55:51.293Z,99588.66
2023-05-03T04:58:17.612Z,99591.06
2023-05-03T05:00:44.285Z,99590.59
2023-05-03T05:03:10.893Z,99590.59
2023-05-03T05:05:37.283Z,99587.94
2023-05-03T05:08:03.648Z,99589.56
2023-05-03T05:10:30.003Z,99586.88
2023-05-03T05:12:56.584Z,99586.38
2023-05-03T05:15:23.439Z,99592.53
2023-05-03T05:17:50.079Z,99592.31
2023-05-03T05:20:17.663Z,99592.53
2023-05-03T05:22:45.130Z,99594.38
2023-05-03T05:25:11.466Z,99599.50
2023-05-03T05:27:38.065Z,99596.94
2023-05-03T05:30:05.011Z,99601.38
2023-05-03T05:32:31.598Z,99601.97
2023-05-03T05:34:58.589Z,99596.75
2023-05-03T05:37:25.134Z,99603.47
2023-05-03T05:39:51.592Z,99605.91
2023-05-03T05:42:17.899Z,99609.94
2023-05-03T05:44:44.322Z,99604.13
2023-05-03T05:47:11.174Z,99608.16
2023-05-03T05:49:37.696Z,99614.31
2023-05-03T05:52:04.021Z,99614.09
2023-05-03T05:54:30.619Z,99607.13
2023-05-03T05:56:57.746Z,99608.75
2023-05-03T05:59:24.078Z,99614.91
2023-05-03T06:01:50.506Z,99615.25
2023-05-03T06:04:16.886Z,99613.13
2023-05-03T06:06:43.297Z,99623.25
2023-05-03T06:09:23.031Z,99627.53
2023-05-03T06:11:50.782Z,99637.84
2023-05-03T06:14:19.284Z,99634.75
2023-05-03T06:16:45.813Z,99647.47
2023-05-03T06:19:12.161Z,99646.59
2023-05-03T06:21:38.492Z,99644.00
2023-05-03T06:24:04.886Z,99645.78
2023-05-03T06:26:31.402Z,99652.28
2023-05-03T06:28:57.904Z,99658.59
2023-05-03T06:31:24.232Z,99655.28
2023-05-03T06:33:50.705Z,99662.22
2023-05-03T06:36:17.030Z,99662.59
2023-05-03T06:38:43.952Z,99653.53
2023-05-03T06:41:10.379Z,99658.50
2023-05-03T06:43:36.698Z,99661.28
2023-05-03T06:46:03.307Z,99664.19
2023-05-03T06:48:29.963Z,99664.47
2023-05-03T06:50:56.342Z,99659.50
2023-05-03T06:53:22.660Z,99658.88
2023-05-03T06:55:49.013Z,99666.66
2023-05-03T06:58:16.686Z,99664.06
2023-05-03T07:00:43.175Z,99662.28
2023-05-03T07:03:09.593Z,99655.53
2023-05-03T07:05:36.302Z,99669.22
2023-05-03T07:08:03.796Z,99659.34
2023-05-03T07:10:31.362Z,99659.59
2023-05-03T07:12:57.980Z,99664.63
2023-05-03T07:15:24.425Z,99667.72
2023-05-03T07:17:51.013Z,99660.09
2023-05-03T07:20:17.373Z,99658.25
2023-05-03T07:22:44.522Z,99662.91
2023-05-03T07:25:12.226Z,99665.09
2023-05-03T07:27:38.716Z,99660.34
2023-05-03T07:30:05.497Z,99664.13
2023-05-03T07:32:32.459Z,99662.72
2023-05-03T07:34:58.861Z,99662.97
2023-05-03T07:37:27.558Z,99653.47
2023-05-03T07:39:53.987Z,99658.16
2023-05-03T07:42:20.560Z,99650.25
2023-05-03T07:44:46.911Z,99653.16
2023-05-03T07:47:13.261Z,99651.97
2023-05-03T07:49:39.642Z,99647.06
2023-05-03T07:52:05.961Z,99646.81
2023-05-03T07:54:32.287Z,99645.75
2023-05-03T07:56:58.610Z,99648.31
2023-05-03T07:59:24.979Z,99643.44
2023-05-03T08:01:51.496Z,99641.31
2023-05-03T08:04:18.307Z,99646.22
2023-05-03T08:06:44.902Z,99647.72
2023-05-03T08:09:11.656Z,99642.69
2023-05-03T08:11:38.021Z,99642.00
2023-05-03T08:14:04.812Z,99647.69
2023-05-03T08:16:31.534Z,99649.19
2023-05-03T08:18:57.924Z,99660.19
2023-05-03T08:21:25.015Z,99653.59
2023-05-03T08:23:51.434Z,99645.25
2023-05-03T08:26:17.770Z,99647.22
2023-05-03T08:28:44.118Z,99657.94
2023-05-03T08:31:10.641Z,99655.00
2023-05-03T08:33:37.002Z,99642.81
2023-05-03T08:36:03.391Z,99633.34
2023-05-03T08:38:29.731Z,99631.16
2023-05-03T08:40:57.610Z,99630.31
2023-05-03T08:43:23.932Z,99637.63
2023-05-03T08:45:50.276Z,99638.38
2023-05-03T08:48:16.690Z,99629.06
2023-05-03T08:50:43.038Z,99630.63
2023-05-03T08:53:09.638Z,99620.81
2023-05-03T08:55:36.183Z,99632.06
2023-05-03T08:58:04.675Z,99625.41
2023-05-03T09:00:31.007Z,99634.88
2023-05-03T09:02:57.448Z,99632.88
2023-05-03T09:05:25.938Z,99627.72
2023-05-03T09:08:04.955Z,99631.78
2023-05-03T09:10:31.807Z,99627.63
2023-05-03T09:12:58.800Z,99612.88
2023-05-03T09:15:26.488Z,99619.44
2023-05-03T09:18:06.409Z,99610.78
2023-05-03T09:20:34.104Z,99614.91
2023-05-03T09:23:01.249Z,99613.94
2023-05-03T09:25:40.080Z,99617.75
2023-05-03T09:28:06.398Z,99615.63
2023-05-03T09:30:32.760Z,99614.03
2023-05-03T09:32:59.109Z,99621.78
2023-05-03T09:35:25.458Z,99627.06
2023-05-03T09:37:51.780Z,99632.66
2023-05-03T09:40:18.678Z,99626.91
2023-05-03T09:43:20.376Z,99621.97
2023-05-03T09:45:46.842Z,99615.66
2023-05-03T09:48:13.288Z,99617.47
2023-05-03T09:50:39.636Z,99615.09
2023-05-03T09:53:07.183Z,99608.34
2023-05-03T09:55:34.327Z,99608.34
2023-05-03T09:58:00.846Z,99626.50
2023-05-03T10:00:27.793Z,99621.38
2023-05-03T10:02:56.985Z,99623.03
2023-05-03T10:05:23.380Z,99622.53
2023-05-03T10:07:50.742Z,99611.81
2023-05-03T10:10:17.368Z,99617.19
2023-05-03T10:12:44.345Z,99615.94
2023-05-03T10:15:10.700Z,99612.09
2023-05-03T10:17:47.963Z,99610.78
2023-05-03T10:20:16.813Z,99612.34
2023-05-03T10:23:01.871Z,99612.09
2023-05-03T10:25:28.260Z,99605.44
2023-05-03T10:27:54.602Z,99608.13
2023-05-03T10:30:28.686Z,99612.34
2023-05-03T10:32:55.356Z,99609.41
2023-05-03T10:35:22.142Z,99599.50
2023-05-03T10:37:48.718Z,99592.81
2023-05-03T10:40:15.845Z,99595.47
2023-05-03T10:42:45.833Z,99595.47
2023-05-03T10:45:21.120Z,99599.19
2023-05-03T10:48:06.373Z,99588.50
2023-05-03T10:50:32.703Z,99587.13
2023-05-03T10:52:59.085Z,99593.28
2023-05-03T10:55:25.646Z,99584.03
2023-05-03T10:57:55.706Z,99585.69
2023-05-03T11:00:28.962Z,99579.34
2023-05-03T11:03:13.560Z,99579.41
2023-05-03T11:05:39.871Z,99584.03
2023-05-03T11:08:10.020Z,99584.38
2023-05-03T11:10:36.349Z,99578.88
2023-05-03T11:13:02.903Z,99574.81
2023-05-03T11:15:29.331Z,99569.88
2023-05-03T11:17:56.283Z,99569.88
2023-05-03T11:20:22.759Z,99574.81
2023-05-03T11:22:49.086Z,99581.53
2023-05-03T11:25:15.478Z,99580.72
2023-05-03T11:27:42.125Z,99574.50
2023-05-03T11:30:08.815Z,99572.13
2023-05-03T11:32:35.153Z,99571.09
2023-05-03T11:35:03.876Z,99565.25
2023-05-03T11:37:32.069Z,99568.75
2023-05-03T11:39:58.787Z,99557.16
2023-05-03T11:42:26.066Z,99549.50
2023-05-03T11:44:52.663Z,99557.75
2023-05-03T11:47:19.084Z,99563.06
2023-05-03T11:49:52.431Z,99557.50
2023-05-03T11:52:22.492Z,99555.97
2023-05-03T11:54:48.852Z,99550.56
2023-05-03T11:57:16.199Z,99539.44
2023-05-03T11:59:44.073Z,99542.78
2023-05-03T12:02:12.088Z,99541.44
2023-05-03T12:04:42.073Z,99545.97
2023-05-03T12:07:14.605Z,99542.13
2023-05-03T12:09:44.531Z,99544.38
2023-05-03T12:14:58.197Z,99538.22
2023-05-03T12:17:38.727Z,99529.41
2023-05-03T12:22:51.955Z,99524.06
2023-05-03T12:25:20.239Z,99523.00
2023-05-03T12:27:54.321Z,99526.47
2023-05-03T12:30:34.019Z,99515.22
2023-05-03T12:33:02.196Z,99521.47
2023-05-03T12:35:32.759Z,99519.53
2023-05-03T12:38:02.925Z,99518.72
2023-05-03T12:40:34.355Z,99522.50
2023-05-03T12:43:01.681Z,99523.91
2023-05-03T12:45:31.789Z,99514.66
2023-05-03T12:48:00.532Z,99515.78
2023-05-03T12:50:30.978Z,99511.81
2023-05-03T12:55:25.751Z,99506.72
2023-05-03T12:58:13.759Z,99506.91
2023-05-03T13:05:36.745Z,99503.00
2023-05-03T13:08:09.196Z,99501.88
2023-05-03T13:10:37.462Z,99501.31
2023-05-03T13:13:04.064Z,99506.41
2023-05-03T13:15:30.437Z,99500.59
2023-05-03T13:17:57.041Z,99489.09
2023-05-03T13:20:24.153Z,99489.91
2023-05-03T13:22:50.711Z,99481.34
2023-05-03T13:25:17.062Z,99474.16
2023-05-03T13:27:44.009Z,99474.16
2023-05-03T13:30:10.810Z,99477.03
2023-05-03T13:32:37.276Z,99476.22
2023-05-03T13:35:05.422Z,99477.19
2023-05-03T13:37:32.044Z,99469.19
2023-05-03T13:39:58.413Z,99467.56
2023-05-03T13:42:24.823Z,99472.31
2023-05-03T13:44:51.187Z,99470.47
2023-05-03T13:47:17.525Z,99468.84
2023-05-03T13:49:43.908Z,99463.44
2023-05-03T13:52:10.794Z,99460.75
2023-05-03T13:54:37.279Z,99453.00
2023-05-03T13:57:03.675Z,99468.22
2023-05-03T13:59:30.018Z,99455.16
2023-05-03T14:01:56.549Z,99454.63
2023-05-03T14:04:24.517Z,99450.56
2023-05-03T14:06:50.869Z,99450.34
2023-05-03T14:09:17.571Z,99441.66
2023-05-03T14:11:43.882Z,99443.78
2023-05-03T14:14:10.207Z,99433.09
2023-05-03T14:16:41.459Z,99430.91
2023-05-03T14:19:10.221Z,99428.00
2023-05-03T14:21:37.227Z,99428.44
2023-05-03T14:24:03.630Z,99431.13
2023-05-03T14:26:29.960Z,99433.56
2023-05-03T14:28:56.323Z,99432.97
2023-05-03T14:31:22.744Z,99431.13
2023-05-03T14:33:49.105Z,99425.78
2023-05-03T14:36:15.687Z,99419.63
2023-05-03T14:38:42.006Z,99415.94
2023-05-03T14:41:09.217Z,99410.59
2023-05-03T14:43:35.776Z,99405.50
2023-05-03T14:46:02.157Z,99405.16
2023-05-03T14:48:28.549Z,99394.22
2023-05-03T14:50:54.873Z,99399.81
2023-05-03T14:53:22.475Z,99401.69
2023-05-03T14:55:48.846Z,99399.00
2023-05-03T14:58:15.891Z,99405.16
2023-05-03T15:00:42.481Z,99401.91
2023-05-03T15:03:11.594Z,99400.88
2023-05-03T15:05:44.346Z,99396.81
2023-05-03T15:08:11.147Z,99394.47
2023-05-03T15:10:40.706Z,99402.72
2023-05-03T15:13:07.163Z,99396.47
2023-05-03T15:15:33.669Z,99391.72
2023-05-03T15:18:00.048Z,99389.28
2023-05-03T15:20:27.134Z,99388.97
2023-05-03T15:22:53.485Z,99384.69
2023-05-03T15:25:19.858Z,99380.97
2023-05-03T15:27:46.283Z,99384.44
2023-05-03T15:30:14.675Z,99378.06
2023-05-03T15:32:41.020Z,99377.25
2023-05-03T15:35:07.432Z,99376.09
2023-05-03T15:37:36.846Z,99369.16
2023-05-03T15:40:04.000Z,99366.50
2023-05-03T15:42:30.667Z,99364.88
2023-05-03T15:44:57.299Z,99362.44
2023-05-03T15:47:24.034Z,99362.22
2023-05-03T15:49:50.500Z,99362.69
2023-05-03T15:52:16.938Z,99368.00
2023-05-03T15:54:43.277Z,99366.63
2023-05-03T15:57:09.589Z,99364.78
2023-05-03T15:59:36.173Z,99358.06
2023-05-03T16:02:03.891Z,99366.06
2023-05-03T16:04:30.356Z,99354.59
2023-05-03T16:06:57.981Z,99365.50
2023-05-03T16:09:24.347Z,99366.31
2023-05-03T16:11:50.772Z,99367.13
2023-05-03T16:14:17.125Z,99362.00
2023-05-03T16:16:45.671Z,99357.16
2023-05-03T16:19:12.567Z,99357.97
2023-05-03T16:21:38.870Z,99359.25
2023-05-03T16:24:05.490Z,99357.63
2023-05-03T16:26:32.045Z,99357.63
2023-05-03T16:28:58.378Z,99353.91
2023-05-03T16:31:24.737Z,99352.31
2023-05-03T16:33:51.042Z,99353.09
2023-05-03T16:36:18.669Z,99349.88
2023-05-03T16:38:45.197Z,99351.25
2023-05-03T16:41:11.539Z,99350.13
2023-05-03T16:43:38.267Z,99351.16
2023-05-03T16:46:05.298Z,99343.75
2023-05-03T16:48:31.978Z,99349.31
2023-05-03T16:51:00.778Z,99348.50
2023-05-03T16:53:27.117Z,99348.50
2023-05-03T16:55:53.525Z,99346.41
2023-05-03T16:58:20.092Z,99348.03
2023-05-03T17:00:46.587Z,99348.28
2023-05-03T17:03:13.660Z,99357.31
2023-05-03T17:05:40.042Z,99351.16
2023-05-03T17:08:09.296Z,99351.41
2023-05-03T17:10:36.024Z,99347.13
2023-05-03T17:13:02.539Z,99348.19
2023-05-03T17:15:28.906Z,99346.31
2023-05-03T17:17:55.402Z,99350.03
2023-05-03T17:20:21.790Z,99357.47
2023-05-03T17:22:48.094Z,99347.03
2023-05-03T17:25:14.839Z,99349.94
2023-05-03T17:27:42.353Z,99349.94
2023-05-03T17:30:09.577Z,99356.31
2023-05-03T17:32:36.560Z,99347.25
2023-05-03T17:35:03.020Z,99351.56
2023-05-03T17:37:29.340Z,99347.84
2023-05-03T17:39:55.710Z,99348.91
2023-05-03T17:42:22.045Z,99340.41
2023-05-03T17:44:51.665Z,99343.66
2023-05-03T17:47:17.995Z,99348.19
2023-05-03T17:49:44.330Z,99343.88
2023-05-03T17:52:10.709Z,99342.28
2023-05-03T17:54:39.646Z,99338.56
2023-05-03T17:57:06.218Z,99337.75
2023-05-03T17:59:32.654Z,99336.94
2023-05-03T18:01:59.025Z,99341.22
2023-05-03T18:04:26.842Z,99343.06
2023-05-03T18:06:53.299Z,99343.31
2023-05-03T18:09:19.682Z,99334.50
2023-05-03T18:11:46.300Z,99336.38
2023-05-03T18:14:12.664Z,99332.06
2023-05-03T18:16:38.992Z,99341.13
2023-05-03T18:19:05.670Z,99333.38
2023-05-03T18:21:31.977Z,99330.97
2023-05-03T18:23:58.345Z,99339.41
2023-05-03T18:26:25.315Z,99336.41
2023-05-03T18:28:53.528Z,99342.00
2023-05-03T18:31:21.388Z,99344.19
2023-05-03T18:33:48.277Z,99340.94
2023-05-03T18:36:15.467Z,99339.31
2023-05-03T18:38:46.999Z,99348.38
2023-05-03T18:41:14.814Z,99340.38
2023-05-03T18:43:44.360Z,99338.75
2023-05-03T18:46:10.730Z,99351.03
2023-05-03T18:48:37.084Z,99344.78
2023-05-03T18:51:04.663Z,99352.22
2023-05-03T18:53:34.453Z,99351.22
2023-05-03T18:56:02.108Z,99341.88
2023-05-03T18:58:29.174Z,99346.75
2023-05-03T19:00:59.953Z,99351.34
2023-05-03T19:03:27.080Z,99349.34
2023-05-03T19:05:53.411Z,99347.75
2023-05-03T19:08:19.737Z,99353.06
2023-05-03T19:10:46.077Z,99346.00
2023-05-03T19:13:14.041Z,99344.97
2023-05-03T19:15:42.599Z,99344.19
2023-05-03T19:18:09.732Z,99341.50
2023-05-03T19:20:36.209Z,99344.00
2023-05-03T19:23:02.561Z,99342.50
2023-05-03T19:25:28.898Z,99343.03
2023-05-03T19:27:55.211Z,99333.19
2023-05-03T19:30:21.569Z,99339.09
2023-05-03T19:32:47.923Z,99344.69
2023-05-03T19:35:14.722Z,99339.91
2023-05-03T19:37:42.384Z,99340.47
2023-05-03T19:40:09.095Z,99342.66
2023-05-03T19:42:35.391Z,99339.44
2023-05-03T19:45:04.939Z,99341.03
2023-05-03T19:47:31.499Z,99333.84
2023-05-03T19:49:57.917Z,99343.47
2023-05-03T19:52:24.223Z,99344.25
2023-05-03T19:54:50.560Z,99339.25
2023-05-03T19:57:17.038Z,99334.72
2023-05-03T19:59:43.353Z,99343.47
2023-05-03T20:02:09.729Z,99341.75
2023-05-03T20:04:36.145Z,99340.63
2023-05-03T20:07:02.460Z,99342.66
2023-05-03T20:09:28.789Z,99341.94
2023-05-03T20:12:02.094Z,99342.03
2023-05-03T20:17:56.929Z,99342.84
2023-05-03T20:20:23.270Z,99344.72
2023-05-03T20:22:49.563Z,99343.91
2023-05-03T20:25:18.534Z,99342.47
2023-05-03T20:27:44.885Z,99342.47
2023-05-03T20:30:11.454Z,99336.59
2023-05-03T20:32:38.956Z,99339.25
2023-05-03T20:35:05.587Z,99337.31
2023-05-03T20:37:31.899Z,99338.38
2023-05-03T20:39:58.415Z,99334.09
2023-05-03T20:42:24.720Z,99340.47
2023-05-03T20:44:51.699Z,99332.72
2023-05-03T20:47:18.149Z,99337.78
2023-05-03T20:49:44.486Z,99342.31
2023-05-03T20:52:10.957Z,99341.25
2023-05-03T20:54:37.437Z,99330.59
2023-05-03T20:57:03.761Z,99335.63
2023-05-03T20:59:30.201Z,99326.00
2023-05-03T21:01:56.512Z,99332.97
2023-05-03T21:04:24.186Z,99329.22
2023-05-03T21:06:50.769Z,99326.81
2023-05-03T21:09:17.263Z,99329.47
2023-05-03T21:11:43.624Z,99324.94
2023-05-03T21:14:10.475Z,99329.69
2023-05-03T21:16:37.879Z,99328.09
2023-05-03T21:19:04.456Z,99329.06
2023-05-03T21:21:30.784Z,99328.72
2023-05-03T21:23:57.239Z,99332.38
2023-05-03T21:26:23.688Z,99330.56
2023-05-03T21:28:50.002Z,99326.66
2023-05-03T21:31:16.411Z,99323.75
2023-05-03T21:33:43.381Z,99326.66
2023-05-03T21:36:09.718Z,99326.09
2023-05-03T21:38:36.026Z,99320.19
2023-05-03T21:41:04.093Z,99316.69
2023-05-03T21:43:30.595Z,99318.25
2023-05-03T21:45:57.219Z,99311.53
2023-05-03T21:48:24.400Z,99304.59
2023-05-03T21:50:51.228Z,99303.44
2023-05-03T21:53:17.841Z,99306.34
2023-05-03T21:55:44.904Z,99310.03
2023-05-03T21:58:11.230Z,99300.69
2023-05-03T22:00:39.554Z,99301.91
2023-05-03T22:03:06.264Z,99303.22
2023-05-03T22:05:33.092Z,99302.41
2023-05-03T22:07:59.685Z,99294.63
2023-05-03T22:10:26.314Z,99292.78
2023-05-03T22:12:52.668Z,99287.69
2023-05-03T22:15:19.083Z,99290.63
2023-05-03T22:17:45.875Z,99284.47
2023-05-03T22:20:12.347Z,99286.56
2023-05-03T22:22:38.752Z,99280.66
2023-05-03T22:25:05.436Z,99288.66
2023-05-03T22:27:31.758Z,99285.19
2023-05-03T22:29:58.101Z,99281.38
2023-05-03T22:32:24.705Z,99286.13
2023-05-03T22:34:51.292Z,99285.81
2023-05-03T22:37:17.684Z,99289.72
2023-05-03T22:39:44.252Z,99297.97
2023-05-03T22:42:10.583Z,99295.53
2023-05-03T22:44:37.417Z,99282.69
2023-05-03T22:47:03.747Z,99287.44
2023-05-03T22:49:30.069Z,99283.16
2023-05-03T22:51:56.417Z,99282.59
2023-05-03T22:54:22.789Z,99286.28
2023-05-03T22:56:49.951Z,99280.16
2023-05-03T22:59:16.273Z,99276.38
2023-05-03T23:01:43.921Z,99279.84
2023-05-03T23:04:10.350Z,99281.91
2023-05-03T23:06:36.758Z,99282.72
2023-05-03T23:09:04.402Z,99276.59
2023-05-03T23:11:31.089Z,99276.81
2023-05-03T23:13:57.491Z,99279.50
2023-05-03T23:16:24.057Z,99277.88
2023-05-03T23:18:50.384Z,99275.44
2023-05-03T23:21:16.749Z,99273.81
2023-05-03T23:23:43.278Z,99273.81
2023-05-03T23:26:09.602Z,99269.53
2023-05-03T23:28:36.692Z,99268.75
2023-05-03T23:31:03.329Z,99265.47
2023-05-03T23:33:30.540Z,99264.13
2023-05-03T23:35:57.149Z,99260.06
2023-05-03T23:38:23.499Z,99256.03
2023-05-03T23:40:50.066Z,99257.06
2023-05-03T23:43:16.394Z,99257.28
2023-05-03T23:45:42.702Z,99250.34
2023-05-03T23:48:09.073Z,99247.13
2023-05-03T23:50:35.482Z,99253.25
2023-05-03T23:53:03.521Z,99247.34
2023-05-03T23:55:29.850Z,99247.59
2023-05-03T23:57:56.178Z,99234.53
